Time;durP1;ratioP1;P1;durP2;ratioP2;P2;SDS_P1;SDS_P2;PMS_P1;PMS_P2;Temp;Humidity;BMP_temperature;BMP_pressure;BME280_temperature;BME280_humidity;BME280_pressure;Samples;Min_cycle;Max_cycle;Signal;HPM_P1;HPM_P2
2022/06/09 00:01:02;;;;;;;;;;;;;;;18.67;100.00;99298.22;5116312;28;19966;-78
2022/06/09 00:03:36;;;;;;;;;;;;;;;18.73;100.00;99302.13;5116625;28;19920;-85
2022/06/09 00:06:09;;;;;;;;;;;;;;;18.62;100.00;99294.28;5116318;28;20391;-85
2022/06/09 00:08:38;;;;;;;;;;;;;;;18.52;100.00;99299.84;5116177;28;19919;-86
2022/06/09 00:11:09;;;;;;;;;;;;;;;18.46;100.00;99305.94;5098182;28;19981;-86
2022/06/09 00:13:38;;;;;;;;;;;;;;;18.46;100.00;99295.13;5116388;28;20010;-86
2022/06/09 00:16:09;;;;;;;;;;;;;;;18.46;100.00;99295.13;5098169;28;19973;-77
2022/06/09 00:18:39;;;;;;;;;;;;;;;18.45;100.00;99282.66;5115754;28;19920;-76
2022/06/09 00:21:07;;;;;;;;;;;;;;;18.38;100.00;99290.56;5115943;28;20327;-77
2022/06/09 00:23:35;;;;;;;;;;;;;;;18.34;100.00;99280.28;5115907;28;19924;-76
2022/06/09 00:26:03;;;;;;;;;;;;;;;18.34;100.00;99283.81;5115695;28;19919;-76
2022/06/09 00:28:31;;;;;;;;;;;;;;;18.44;100.00;99270.16;5097332;28;19919;-76
2022/06/09 00:31:01;;;;;;;;;;;;;;;18.57;100.00;99282.16;5115858;28;19920;-77
2022/06/09 00:33:29;;;;;;;;;;;;;;;18.60;100.00;99272.88;5115254;28;19963;-78
2022/06/09 00:35:59;;;;;;;;;;;;;;;18.67;100.00;99279.31;5115492;28;19934;-77
2022/06/09 00:38:27;;;;;;;;;;;;;;;18.70;100.00;99270.88;5115152;28;20018;-77
2022/06/09 00:40:56;;;;;;;;;;;;;;;18.68;100.00;99282.88;5115564;28;19949;-77
2022/06/09 00:43:25;;;;;;;;;;;;;;;18.63;100.00;99277.13;5115283;28;19919;-76
2022/06/09 00:45:58;;;;;;;;;;;;;;;18.67;100.00;99282.03;5115305;28;19920;-76
2022/06/09 00:48:32;;;;;;;;;;;;;;;18.66;100.00;99282.19;5115248;28;19924;-78
2022/06/09 00:51:12;;;;;;;;;;;;;;;18.71;100.00;99283.38;5115241;28;20375;-77
2022/06/09 00:53:41;;;;;;;;;;;;;;;18.73;100.00;99275.97;5115412;28;19968;-77
2022/06/09 00:56:12;;;;;;;;;;;;;;;18.72;100.00;99285.09;5115341;28;19959;-77
2022/06/09 00:58:43;;;;;;;;;;;;;;;18.66;100.00;99283.03;5115141;28;20288;-77
2022/06/09 01:01:13;;;;;;;;;;;;;;;18.59;100.00;99279.28;5115108;28;20018;-78
2022/06/09 01:03:43;;;;;;;;;;;;;;;18.58;100.00;99288.41;5097470;28;19998;-78
2022/06/09 01:06:14;;;;;;;;;;;;;;;18.63;100.00;99277.94;5115207;28;20030;-78
2022/06/09 01:08:54;;;;;;;;;;;;;;;18.60;100.00;99280.97;5115171;28;19976;-78
2022/06/09 01:11:22;;;;;;;;;;;;;;;18.60;100.00;99279.09;5114804;28;20022;-78
2022/06/09 01:13:51;;;;;;;;;;;;;;;18.59;100.00;99282.81;5115193;28;19926;-79
2022/06/09 01:16:23;;;;;;;;;;;;;;;18.63;100.00;99269.00;5114311;28;19968;-79
2022/06/09 01:18:55;;;;;;;;;;;;;;;18.62;100.00;99268.13;5114609;28;19920;-79
2022/06/09 01:21:39;;;;;;;;;;;;;;;18.61;100.00;99266.44;5114325;28;20014;-79
2022/06/09 01:24:31;;;;;;;;;;;;;;;18.80;100.00;99265.31;5114912;28;19926;-78
2022/06/09 01:27:12;;;;;;;;;;;;;;;18.97;100.00;99263.47;5114557;28;19920;-78
2022/06/09 01:29:56;;;;;;;;;;;;;;;18.94;100.00;99263.81;5114936;28;19926;-75
2022/06/09 01:32:29;;;;;;;;;;;;;;;18.88;100.00;99268.84;5114577;28;19926;-75
2022/06/09 01:35:03;;;;;;;;;;;;;;;18.86;100.00;99270.91;5114766;28;20014;-75
2022/06/09 01:37:33;;;;;;;;;;;;;;;18.71;100.00;99267.16;5114502;28;19969;-75
2022/06/09 01:40:04;;;;;;;;;;;;;;;18.84;100.00;99270.22;5114566;28;19926;-75
2022/06/09 01:42:34;;;;;;;;;;;;;;;18.78;100.00;99268.19;5114357;28;19967;-75
2022/06/09 01:45:04;;;;;;;;;;;;;;;18.74;100.00;99261.44;5114594;28;19920;-76
2022/06/09 01:47:40;;;;;;;;;;;;;;;18.70;100.00;99270.88;5114118;28;19919;-74
2022/06/09 01:50:10;;;;;;;;;;;;;;;18.69;100.00;99262.94;5114035;28;20288;-75
2022/06/09 01:52:41;;;;;;;;;;;;;;;18.67;100.00;99264.97;5114070;28;20448;-81
2022/06/09 01:55:12;;;;;;;;;;;;;;;18.66;100.00;99264.13;5114488;28;19942;-81
2022/06/09 01:57:42;;;;;;;;;;;;;;;18.64;100.00;99268.00;5114522;28;19920;-80
2022/06/09 02:00:12;;;;;;;;;;;;;;;18.69;100.00;99258.38;5114484;28;20291;-78
2022/06/09 02:02:43;;;;;;;;;;;;;;;18.75;100.00;99257.72;5114403;28;19969;-77
2022/06/09 02:05:13;;;;;;;;;;;;;;;18.74;100.00;99268.72;5114312;28;19926;-77
2022/06/09 02:07:42;;;;;;;;;;;;;;;18.68;100.00;99262.09;5114088;28;19971;-78
2022/06/09 02:10:16;;;;;;;;;;;;;;;18.67;100.00;99251.47;5114039;28;19969;-76
2022/06/09 02:12:45;;;;;;;;;;;;;;;18.58;100.00;99256.84;5096050;28;20391;-76
2022/06/09 02:15:15;;;;;;;;;;;;;;;18.55;100.00;99259.03;5114106;28;19924;-76
2022/06/09 02:17:46;;;;;;;;;;;;;;;18.48;100.00;99260.72;5114414;28;20009;-76
2022/06/09 02:20:15;;;;;;;;;;;;;;;18.42;100.00;99254.09;5096500;28;20343;-76
2022/06/09 02:22:43;;;;;;;;;;;;;;;18.34;100.00;99256.81;5114080;28;19920;-76
2022/06/09 02:25:11;;;;;;;;;;;;;;;18.28;100.00;99261.00;5113819;28;19933;-75
2022/06/09 02:27:39;;;;;;;;;;;;;;;18.21;100.00;99268.06;5113601;28;19920;-75
2022/06/09 02:30:08;;;;;;;;;;;;;;;18.19;100.00;99266.56;5114064;28;20387;-74
2022/06/09 02:32:57;;;;;;;;;;;;;;;18.17;100.00;99273.97;5113793;28;20014;-73
2022/06/09 02:35:25;;;;;;;;;;;;;;;18.12;100.00;99277.16;5113697;28;19919;-74
2022/06/09 02:37:54;;;;;;;;;;;;;;;18.15;100.00;99273.31;5114198;28;19985;-73
2022/06/09 02:40:24;;;;;;;;;;;;;;;18.12;100.00;99276.31;5114405;28;20010;-74
2022/06/09 02:42:52;;;;;;;;;;;;;;;18.13;100.00;99278.84;5113390;28;19919;-73
2022/06/09 02:45:19;;;;;;;;;;;;;;;18.13;100.00;99278.84;5113518;28;19927;-74
2022/06/09 02:47:47;;;;;;;;;;;;;;;18.18;100.00;99281.06;5113811;28;19927;-76
2022/06/09 02:50:17;;;;;;;;;;;;;;;18.16;100.00;99278.53;5113750;28;20025;-76
2022/06/09 02:52:45;;;;;;;;;;;;;;;18.22;100.00;99277.84;5113822;28;20008;-76
2022/06/09 02:55:14;;;;;;;;;;;;;;;18.20;100.00;99279.88;5113682;28;20014;-76
2022/06/09 02:57:42;;;;;;;;;;;;;;;18.23;100.00;99274.13;5113545;28;19919;-77
2022/06/09 03:00:14;;;;;;;;;;;;;;;18.29;100.00;99276.19;5113395;28;19931;-79
2022/06/09 03:02:42;;;;;;;;;;;;;;;18.38;100.00;99281.63;5113471;28;19926;-79
2022/06/09 03:05:11;;;;;;;;;;;;;;;18.46;100.00;99276.25;5113234;28;19923;-75
2022/06/09 03:07:40;;;;;;;;;;;;;;;18.55;100.00;99276.09;5095202;28;19924;-75
2022/06/09 03:10:08;;;;;;;;;;;;;;;18.66;100.00;99279.50;5113156;28;20283;-75
2022/06/09 03:12:36;;;;;;;;;;;;;;;18.72;100.00;99285.09;5095290;28;20014;-76
2022/06/09 03:15:07;;;;;;;;;;;;;;;18.84;100.00;99274.78;5113490;28;20352;-75
2022/06/09 03:17:36;;;;;;;;;;;;;;;18.97;100.00;99285.06;5113353;28;20357;-76
2022/06/09 03:20:05;;;;;;;;;;;;;;;19.07;100.00;99281.19;5113114;28;20341;-74
2022/06/09 03:22:33;;;;;;;;;;;;;;;19.10;100.00;99277.28;5113410;28;19919;-74
2022/06/09 03:25:03;;;;;;;;;;;;;;;19.28;100.00;99283.34;5113595;28;20397;-74
2022/06/09 03:27:31;;;;;;;;;;;;;;;19.45;100.00;99271.50;5116703;28;20375;-74
2022/06/09 03:30:01;;;;;;;;;;;;;;;19.80;100.00;99269.41;5116898;28;19947;-74
2022/06/09 03:32:29;;;;;;;;;;;;;;;19.94;100.00;99271.34;5116569;28;19919;-75
2022/06/09 03:34:57;;;;;;;;;;;;;;;20.23;100.00;99264.44;5099027;28;19926;-75
2022/06/09 03:37:25;;;;;;;;;;;;;;;20.80;100.00;99264.94;5116268;28;19923;-76
2022/06/09 03:39:54;;;;;;;;;;;;;;;21.57;100.00;99270.16;5116850;28;19924;-76
2022/06/09 03:42:23;;;;;;;;;;;;;;;21.97;100.00;99262.56;5098557;28;20018;-77
2022/06/09 03:44:51;;;;;;;;;;;;;;;22.61;100.00;99270.03;5116462;28;19926;-76
2022/06/09 03:47:19;;;;;;;;;;;;;;;23.13;100.00;99269.69;5116751;28;19920;-76
2022/06/09 03:49:47;;;;;;;;;;;;;;;23.73;100.00;99276.41;5116512;28;19919;-76
2022/06/09 03:52:16;;;;;;;;;;;;;;;24.00;100.00;99274.69;5117067;28;19920;-76
2022/06/09 03:54:44;;;;;;;;;;;;;;;24.22;100.00;99267.22;5116248;28;19920;-80
2022/06/09 03:57:12;;;;;;;;;;;;;;;24.71;100.00;99271.63;5116707;28;19970;-80
2022/06/09 03:59:41;;;;;;;;;;;;;;;24.78;100.00;99273.28;5116434;28;19920;-80
2022/06/09 04:02:10;;;;;;;;;;;;;;;25.22;100.00;99269.16;5116437;28;20265;-79
2022/06/09 04:04:38;;;;;;;;;;;;;;;25.77;100.00;99268.88;5098315;28;19924;-80
2022/06/09 04:07:06;;;;;;;;;;;;;;;25.45;100.00;99273.31;5116586;28;20353;-80
2022/06/09 04:09:34;;;;;;;;;;;;;;;25.97;100.00;99266.94;5098296;28;19920;-80
2022/06/09 04:12:03;;;;;;;;;;;;;;;26.03;100.00;99271.53;5116234;28;19927;-77
2022/06/09 04:14:31;;;;;;;;;;;;;;;26.21;100.00;99276.28;5115644;28;19919;-77
2022/06/09 04:17:02;;;;;;;;;;;;;;;26.24;100.00;99273.94;5116513;28;19919;-76
2022/06/09 04:19:30;;;;;;;;;;;;;;;26.76;100.00;99277.50;5116040;28;19941;-79
2022/06/09 04:21:58;;;;;;;;;;;;;;;26.91;100.00;99279.06;5116221;28;19930;-79
2022/06/09 04:24:27;;;;;;;;;;;;;;;26.93;100.00;99279.72;5115483;28;19920;-78
2022/06/09 04:26:55;;;;;;;;;;;;;;;27.43;100.00;99283.31;5116047;28;19919;-78
2022/06/09 04:29:23;;;;;;;;;;;;;;;27.50;100.00;99277.78;5115941;28;19920;-77
2022/06/09 04:31:51;;;;;;;;;;;;;;;27.92;100.00;99282.44;5115907;28;19926;-76
2022/06/09 04:34:20;;;;;;;;;;;;;;;28.13;100.00;99281.13;5115997;28;19920;-76
2022/06/09 04:36:48;;;;;;;;;;;;;;;28.11;100.00;99285.16;5115147;28;20296;-77
2022/06/09 04:39:16;;;;;;;;;;;;;;;28.51;100.00;99282.78;5115847;28;19924;-76
2022/06/09 04:41:44;;;;;;;;;;;;;;;28.66;100.00;99285.97;5115459;28;19965;-76
2022/06/09 04:44:13;;;;;;;;;;;;;;;28.71;100.00;99293.47;5115576;28;20326;-76
2022/06/09 04:46:41;;;;;;;;;;;;;;;29.09;100.00;99290.38;5115082;28;20300;-76
2022/06/09 04:49:09;;;;;;;;;;;;;;;28.94;100.00;99289.97;5115079;28;20432;-76
2022/06/09 04:51:41;;;;;;;;;;;;;;;29.26;100.00;99298.78;5115316;28;20026;-76
2022/06/09 04:54:09;;;;;;;;;;;;;;;28.92;100.00;99289.38;5115416;28;20014;-80
2022/06/09 04:56:37;;;;;;;;;;;;;;;26.77;100.00;99292.84;5115142;28;20373;-73
2022/06/09 04:59:05;;;;;;;;;;;;;;;25.85;100.00;99291.34;5115190;28;19919;-70
2022/06/09 05:01:36;;;;;;;;;;;;;;;25.65;100.00;99296.81;5115062;28;19951;-72
2022/06/09 05:04:05;;;;;;;;;;;;;;;27.07;100.00;99297.72;5114985;28;19919;-72
2022/06/09 05:06:33;;;;;;;;;;;;;;;28.35;100.00;99292.47;5114827;28;19920;-72
2022/06/09 05:09:02;;;;;;;;;;;;;;;28.83;100.00;99294.34;5115154;28;19919;-72
2022/06/09 05:11:30;;;;;;;;;;;;;;;28.88;100.00;99299.97;5114845;28;19919;-73
2022/06/09 05:13:58;;;;;;;;;;;;;;;28.53;100.00;99294.34;5096723;28;19969;-74
2022/06/09 05:16:26;;;;;;;;;;;;;;;28.98;100.00;99297.53;5115042;28;19920;-75
2022/06/09 05:18:54;;;;;;;;;;;;;;;28.90;100.00;99295.13;5115465;28;19920;-74
2022/06/09 05:21:22;;;;;;;;;;;;;;;29.08;100.00;99292.31;5115006;28;20044;-77
2022/06/09 05:23:50;;;;;;;;;;;;;;;27.69;100.00;99304.16;5114219;28;20021;-74
2022/06/09 05:26:21;;;;;;;;;;;;;;;28.90;100.00;99306.09;5114679;28;20019;-74
2022/06/09 05:28:49;;;;;;;;;;;;;;;29.91;100.00;99312.44;5114184;28;19923;-78
2022/06/09 05:31:19;;;;;;;;;;;;;;;29.43;89.86;99309.88;5114437;28;19931;-84
2022/06/09 05:33:47;;;;;;;;;;;;;;;30.02;83.32;99314.34;5114346;28;20414;-84
2022/06/09 05:36:15;;;;;;;;;;;;;;;29.90;83.90;99317.09;5096375;28;19927;-84
2022/06/09 05:47:02;;;;;;;;;;;;;;;27.32;71.44;99331.44;5114458;28;20291;-81
2022/06/09 05:49:30;;;;;;;;;;;;;;;26.47;75.99;99321.84;5113635;28;19924;-80
2022/06/09 05:51:58;;;;;;;;;;;;;;;25.89;80.26;99330.00;5114675;28;19919;-85
2022/06/09 05:54:27;;;;;;;;;;;;;;;25.42;81.89;99325.63;5114227;28;19942;-76
2022/06/09 05:56:57;;;;;;;;;;;;;;;25.50;80.19;99320.78;5114088;28;19952;-75
2022/06/09 05:59:25;;;;;;;;;;;;;;;25.20;83.05;99330.44;5114351;28;19942;-75
2022/06/09 06:01:53;;;;;;;;;;;;;;;24.84;87.37;99328.91;5113999;28;19919;-75
2022/06/09 06:04:21;;;;;;;;;;;;;;;24.53;86.00;99330.28;5095787;28;19920;-74
2022/06/09 06:06:49;;;;;;;;;;;;;;;24.42;87.24;99335.50;5114053;28;19920;-74
2022/06/09 06:09:18;;;;;;;;;;;;;;;24.33;88.52;99334.81;5113937;28;19920;-75
2022/06/09 06:11:47;;;;;;;;;;;;;;;24.44;89.97;99334.22;5113561;28;19924;-76
2022/06/09 06:14:17;;;;;;;;;;;;;;;24.26;92.04;99342.09;5114258;28;19926;-76
2022/06/09 06:16:45;;;;;;;;;;;;;;;23.94;93.35;99347.16;5113940;28;20355;-80
2022/06/09 06:19:16;;;;;;;;;;;;;;;24.07;93.28;99346.38;5113684;28;19924;-84
2022/06/09 06:21:45;;;;;;;;;;;;;;;24.02;88.53;99348.84;5116622;28;19926;-82
2022/06/09 06:24:14;;;;;;;;;;;;;;;23.96;87.78;99345.06;5114068;28;19985;-77
2022/06/09 06:26:42;;;;;;;;;;;;;;;23.85;88.16;99353.81;5113984;28;20277;-77
2022/06/09 06:29:14;;;;;;;;;;;;;;;23.58;92.34;99346.44;5095717;28;19967;-77
2022/06/09 06:31:44;;;;;;;;;;;;;;;23.73;90.54;99355.38;5113939;28;19963;-78
2022/06/09 06:34:12;;;;;;;;;;;;;;;23.65;92.86;99348.22;5113969;28;20042;-79
2022/06/09 06:36:40;;;;;;;;;;;;;;;23.70;92.90;99353.91;5113807;28;19923;-79
2022/06/09 06:39:08;;;;;;;;;;;;;;;23.82;92.05;99353.34;5114147;28;19919;-80
2022/06/09 06:41:38;;;;;;;;;;;;;;;23.74;92.89;99342.59;5113730;28;19978;-78
2022/06/09 06:44:06;;;;;;;;;;;;;;;23.78;92.21;99350.19;5113709;28;19926;-78
2022/06/09 06:46:35;;;;;;;;;;;;;;;23.75;93.16;99353.31;5113599;28;20006;-79
2022/06/09 06:49:05;;;;;;;;;;;;;;;23.77;93.40;99345.78;5114175;28;19965;-77
2022/06/09 06:51:33;;;;;;;;;;;;;;;23.68;89.91;99352.41;5113914;28;19919;-78
2022/06/09 06:54:04;;;;;;;;;;;;;;;23.82;90.89;99348.72;5113745;28;19962;-78
2022/06/09 06:56:33;;;;;;;;;;;;;;;23.77;89.38;99358.56;5114027;28;19920;-81
2022/06/09 06:59:01;;;;;;;;;;;;;;;23.81;90.67;99351.66;5113649;28;19989;-76
2022/06/09 07:01:30;;;;;;;;;;;;;;;23.99;89.93;99343.81;5117402;28;19972;-78
2022/06/09 07:03:58;;;;;;;;;;;;;;;24.18;87.27;99348.53;5098874;28;19942;-77
2022/06/09 07:06:27;;;;;;;;;;;;;;;24.42;85.40;99355.41;5117648;28;19927;-77
2022/06/09 07:08:58;;;;;;;;;;;;;;;24.57;85.65;99357.13;5117563;28;19923;-78
2022/06/09 07:11:26;;;;;;;;;;;;;;;24.29;84.26;99355.28;5117321;28;19920;-77
2022/06/09 07:13:54;;;;;;;;;;;;;;;24.03;85.57;99366.91;5116927;28;19926;-78
2022/06/09 07:16:22;;;;;;;;;;;;;;;23.88;87.00;99358.00;5117417;28;19930;-78
2022/06/09 07:19:10;;;;;;;;;;;;;;;23.73;87.81;99359.97;5116914;28;20029;-77
2022/06/09 07:21:39;;;;;;;;;;;;;;;23.59;89.39;99359.88;5117042;28;19927;-78
2022/06/09 07:24:07;;;;;;;;;;;;;;;23.55;90.12;99363.19;5098865;28;19959;-78
2022/06/09 07:26:35;;;;;;;;;;;;;;;23.52;90.13;99363.56;5117321;28;19923;-77
2022/06/09 07:29:03;;;;;;;;;;;;;;;23.23;90.87;99362.69;5116987;28;19965;-78
2022/06/09 07:31:32;;;;;;;;;;;;;;;23.39;88.70;99362.41;5116787;28;19972;-77
2022/06/09 07:34:00;;;;;;;;;;;;;;;23.42;89.95;99358.47;5116766;28;19924;-78
2022/06/09 07:36:28;;;;;;;;;;;;;;;23.56;89.02;99359.44;5116961;28;19927;-77
2022/06/09 07:38:57;;;;;;;;;;;;;;;23.59;91.50;99359.06;5098528;28;20288;-77
2022/06/09 07:41:25;;;;;;;;;;;;;;;23.70;90.30;99347.63;5116824;28;19925;-78
2022/06/09 07:43:57;;;;;;;;;;;;;;;23.82;87.66;99354.19;5116797;28;20308;-77
2022/06/09 07:46:25;;;;;;;;;;;;;;;24.04;85.91;99352.25;5116797;28;19953;-77
2022/06/09 07:48:54;;;;;;;;;;;;;;;24.40;83.97;99354.75;5116967;28;19961;-77
2022/06/09 07:51:22;;;;;;;;;;;;;;;24.28;83.74;99349.00;5116339;28;19923;-77
2022/06/09 07:53:50;;;;;;;;;;;;;;;24.37;82.96;99355.16;5116493;28;19919;-77
2022/06/09 07:56:19;;;;;;;;;;;;;;;24.71;82.24;99346.06;5116673;28;19919;-77
2022/06/09 07:58:48;;;;;;;;;;;;;;;24.66;82.27;99354.00;5116408;28;19964;-78
2022/06/09 08:01:18;;;;;;;;;;;;;;;24.38;80.48;99353.28;5098501;28;19985;-77
2022/06/09 08:03:47;;;;;;;;;;;;;;;24.32;80.48;99354.94;5097990;28;19938;-78
2022/06/09 08:06:15;;;;;;;;;;;;;;;24.07;82.43;99351.84;5116463;28;19973;-77
2022/06/09 08:08:52;;;;;;;;;;;;;;;24.52;82.28;99360.47;5115941;28;20373;-78
2022/06/09 08:11:22;;;;;;;;;;;;;;;25.06;78.98;99352.25;5115483;28;19934;-77
2022/06/09 08:13:50;;;;;;;;;;;;;;;25.43;77.41;99355.44;5116150;28;20261;-78
2022/06/09 08:16:18;;;;;;;;;;;;;;;25.71;72.14;99348.94;5115885;28;19949;-77
2022/06/09 08:18:46;;;;;;;;;;;;;;;25.39;72.94;99356.91;5115678;28;20288;-78
2022/06/09 08:21:16;;;;;;;;;;;;;;;25.45;72.48;99356.06;5116506;28;20338;-78
2022/06/09 08:24:01;;;;;;;;;;;;;;;25.30;72.90;99352.72;5116061;28;19920;-78
2022/06/09 08:26:31;;;;;;;;;;;;;;;25.37;71.88;99354.38;5115844;28;19926;-77
2022/06/09 08:28:59;;;;;;;;;;;;;;;25.43;69.81;99357.31;5115830;28;19920;-77
2022/06/09 08:31:27;;;;;;;;;;;;;;;25.11;71.08;99351.63;5097719;28;19924;-77
2022/06/09 08:33:55;;;;;;;;;;;;;;;24.73;69.65;99346.69;5115411;28;19920;-77
2022/06/09 08:36:23;;;;;;;;;;;;;;;24.74;71.46;99342.09;5115602;28;19923;-77
2022/06/09 08:38:51;;;;;;;;;;;;;;;24.69;73.82;99345.41;5115541;28;19920;-78
2022/06/09 08:41:29;;;;;;;;;;;;;;;24.78;71.91;99349.63;5115754;28;19926;-77
2022/06/09 08:44:03;;;;;;;;;;;;;;;25.03;65.76;99352.66;5115459;28;19919;-79
2022/06/09 08:46:39;;;;;;;;;;;;;;;24.91;67.26;99343.38;5115639;28;20349;-77
2022/06/09 08:49:20;;;;;;;;;;;;;;;24.71;68.86;99342.50;5115845;28;19926;-77
2022/06/09 08:51:53;;;;;;;;;;;;;;;25.14;67.95;99343.03;5096889;28;19985;-77
2022/06/09 08:54:25;;;;;;;;;;;;;;;25.33;67.24;99341.38;5115539;28;19919;-78
2022/06/09 08:56:53;;;;;;;;;;;;;;;25.13;68.65;99332.31;5115322;28;19923;-78
2022/06/09 08:59:25;;;;;;;;;;;;;;;25.09;69.30;99329.16;5115353;28;19920;-77
2022/06/09 09:01:56;;;;;;;;;;;;;;;24.74;70.06;99331.19;5114901;28;19969;-78
2022/06/09 09:04:25;;;;;;;;;;;;;;;24.64;72.38;99325.28;5114947;28;19923;-77
2022/06/09 09:06:56;;;;;;;;;;;;;;;24.68;71.50;99326.53;5096539;28;19924;-77
2022/06/09 09:09:27;;;;;;;;;;;;;;;25.00;70.19;99320.31;5115011;28;20372;-77
2022/06/09 09:12:01;;;;;;;;;;;;;;;24.94;70.39;99314.84;5114786;28;19969;-77
2022/06/09 09:14:35;;;;;;;;;;;;;;;24.94;70.54;99315.69;5114603;28;19947;-77
2022/06/09 09:17:13;;;;;;;;;;;;;;;25.01;71.17;99311.09;5096332;28;19931;-77
2022/06/09 09:19:48;;;;;;;;;;;;;;;25.21;70.44;99308.41;5115169;28;20437;-77
2022/06/09 09:22:22;;;;;;;;;;;;;;;25.18;69.13;99299.78;5114936;28;20284;-77
2022/06/09 09:24:58;;;;;;;;;;;;;;;24.77;71.60;99298.03;5114627;28;19920;-77
2022/06/09 09:27:32;;;;;;;;;;;;;;;24.61;71.73;99299.28;5114883;28;20292;-77
2022/06/09 09:30:05;;;;;;;;;;;;;;;24.97;71.69;99304.34;5096150;28;20418;-78
2022/06/09 09:32:38;;;;;;;;;;;;;;;25.69;68.16;99303.53;5114715;28;19920;-77
2022/06/09 09:35:09;;;;;;;;;;;;;;;25.98;67.85;99295.94;5114161;28;20018;-78
2022/06/09 09:37:39;;;;;;;;;;;;;;;26.08;66.38;99301.78;5114757;28;19919;-78
2022/06/09 09:40:15;;;;;;;;;;;;;;;26.35;65.32;99304.44;5096381;28;19955;-78
2022/06/09 09:42:44;;;;;;;;;;;;;;;26.42;65.05;99305.25;5114563;28;19920;-77
2022/06/09 09:45:18;;;;;;;;;;;;;;;26.39;65.32;99301.06;5114309;28;20351;-77
2022/06/09 09:47:49;;;;;;;;;;;;;;;25.66;66.01;99309.41;5114284;28;19926;-78
2022/06/09 09:50:23;;;;;;;;;;;;;;;25.87;66.64;99288.41;5114172;28;19919;-77
2022/06/09 09:53:00;;;;;;;;;;;;;;;26.47;64.23;99291.78;5114371;28;19973;-77
2022/06/09 09:55:31;;;;;;;;;;;;;;;26.37;64.48;99289.50;5114699;28;19965;-77
2022/06/09 09:58:15;;;;;;;;;;;;;;;26.38;63.93;99284.88;5114037;28;19958;-78
2022/06/09 10:00:45;;;;;;;;;;;;;;;26.33;63.69;99280.03;5114369;28;20014;-78
2022/06/09 10:09:28;;;;;;;;;;;;;;;26.78;61.56;99285.50;5114111;28;19959;-77
2022/06/09 10:12:17;;;;;;;;;;;;;;;26.80;64.13;99284.19;5096430;28;19989;-78
2022/06/09 10:14:48;;;;;;;;;;;;;;;26.80;61.80;99280.63;5113864;28;20016;-77
2022/06/09 10:17:37;;;;;;;;;;;;;;;27.02;59.88;99275.63;5114033;28;19919;-76
2022/06/09 10:20:37;;;;;;;;;;;;;;;26.40;62.87;99271.81;5114046;28;20301;-76
2022/06/09 10:23:27;;;;;;;;;;;;;;;26.16;63.19;99271.50;5113587;28;19926;-76
2022/06/09 10:25:58;;;;;;;;;;;;;;;25.73;64.66;99264.91;5113942;28;19951;-77
2022/06/09 10:28:31;;;;;;;;;;;;;;;25.51;64.00;99270.59;5114260;28;19926;-77
2022/06/09 10:31:01;;;;;;;;;;;;;;;26.01;64.36;99270.91;5113805;28;19919;-76
2022/06/09 10:33:36;;;;;;;;;;;;;;;26.31;61.31;99264.91;5114045;28;19927;-78
2022/06/09 10:36:08;;;;;;;;;;;;;;;26.55;59.83;99261.44;5117489;28;19927;-76
2022/06/09 10:38:40;;;;;;;;;;;;;;;26.60;60.12;99267.09;5118001;28;19920;-76
2022/06/09 10:41:11;;;;;;;;;;;;;;;26.61;58.95;99266.00;5117935;28;20285;-76
2022/06/09 10:43:44;;;;;;;;;;;;;;;26.25;60.06;99259.25;5099644;28;19920;-78
2022/06/09 10:46:16;;;;;;;;;;;;;;;26.17;60.10;99259.50;5117677;28;19919;-76
2022/06/09 10:57:16;;;;;;;;;;;;;;;26.63;60.36;99243.91;5099017;28;19923;-78
2022/06/09 10:59:47;;;;;;;;;;;;;;;27.06;59.11;99235.84;5117700;28;19930;-75
2022/06/09 11:02:18;;;;;;;;;;;;;;;26.89;59.18;99242.91;5117634;28;19919;-78
2022/06/09 11:04:47;;;;;;;;;;;;;;;26.67;57.78;99240.53;5117473;28;19919;-78
2022/06/09 11:07:30;;;;;;;;;;;;;;;26.92;57.19;99226.88;5117013;28;19920;-78
2022/06/09 11:10:03;;;;;;;;;;;;;;;27.12;55.04;99234.09;5099487;28;19919;-76
2022/06/09 11:12:38;;;;;;;;;;;;;;;27.53;54.81;99223.41;5117677;28;19926;-76
2022/06/09 11:15:15;;;;;;;;;;;;;;;27.08;55.78;99220.88;5117205;28;20006;-76
2022/06/09 11:17:50;;;;;;;;;;;;;;;26.42;58.59;99223.22;5117334;28;19955;-78
2022/06/09 11:20:26;;;;;;;;;;;;;;;25.93;61.51;99211.03;5117228;28;19923;-78
2022/06/09 11:23:00;;;;;;;;;;;;;;;25.95;63.14;99208.94;5117015;28;19962;-78
2022/06/09 11:25:37;;;;;;;;;;;;;;;25.75;65.17;99209.00;5117339;28;20014;-77
2022/06/09 11:28:13;;;;;;;;;;;;;;;25.25;69.36;99210.56;5116985;28;19926;-78
2022/06/09 11:30:48;;;;;;;;;;;;;;;24.84;71.98;99197.97;5117155;28;19926;-77
2022/06/09 11:33:28;;;;;;;;;;;;;;;24.98;71.81;99201.53;5117351;28;19920;-77
2022/06/09 11:36:00;;;;;;;;;;;;;;;25.06;71.01;99193.19;5098614;28;19921;-77
2022/06/09 11:38:41;;;;;;;;;;;;;;;25.39;68.60;99198.59;5116933;28;20021;-77
2022/06/09 11:41:17;;;;;;;;;;;;;;;25.80;67.85;99194.72;5116686;28;20014;-78
2022/06/09 11:44:11;;;;;;;;;;;;;;;25.42;67.14;99180.94;5116481;28;19924;-78
2022/06/09 11:46:41;;;;;;;;;;;;;;;25.52;66.62;99187.63;5115258;28;19920;-78
2022/06/09 11:49:12;;;;;;;;;;;;;;;25.38;67.54;99181.38;5115966;28;19920;-78
2022/06/09 11:51:42;;;;;;;;;;;;;;;25.31;69.09;99180.56;5098134;28;19920;-78
2022/06/09 11:54:33;;;;;;;;;;;;;;;25.24;68.91;99176.16;5116425;28;19930;-77
2022/06/09 11:57:16;;;;;;;;;;;;;;;24.95;76.29;99186.44;5098079;28;20360;-77
2022/06/09 11:59:54;;;;;;;;;;;;;;;24.54;98.57;99195.66;5116477;28;19920;-77
2022/06/09 12:02:48;;;;;;;;;;;;;;;23.92;100.00;99202.16;5116053;28;20437;-77
2022/06/09 12:05:20;;;;;;;;;;;;;;;24.05;100.00;99193.22;5098019;28;20322;-78
2022/06/09 12:07:58;;;;;;;;;;;;;;;24.09;100.00;99201.81;5116554;28;19963;-77
2022/06/09 12:10:35;;;;;;;;;;;;;;;24.11;100.00;99216.06;5097865;28;20018;-77
2022/06/09 12:13:15;;;;;;;;;;;;;;;23.94;100.00;99221.88;5116100;28;20021;-78
2022/06/09 12:16:07;;;;;;;;;;;;;;;23.31;100.00;99220.25;5116327;28;19926;-78
2022/06/09 12:18:37;;;;;;;;;;;;;;;22.87;100.00;99215.06;5096281;28;20292;-77
2022/06/09 12:21:10;;;;;;;;;;;;;;;22.66;100.00;99222.19;5116157;28;19930;-77
2022/06/09 12:23:40;;;;;;;;;;;;;;;22.06;100.00;99228.84;5116301;28;19926;-77
2022/06/09 12:26:19;;;;;;;;;;;;;;;21.60;100.00;99226.38;5115435;28;19920;-76
2022/06/09 12:28:58;;;;;;;;;;;;;;;20.52;100.00;99213.16;5115670;28;19920;-78
2022/06/09 12:31:28;;;;;;;;;;;;;;;20.26;100.00;99237.00;5116022;28;19920;-77
2022/06/09 12:33:57;;;;;;;;;;;;;;;20.40;100.00;99233.53;5115873;28;19934;-77
2022/06/09 12:36:34;;;;;;;;;;;;;;;20.50;100.00;99246.88;5115801;28;19969;-77
2022/06/09 12:39:04;;;;;;;;;;;;;;;20.72;100.00;99247.88;5115244;28;19919;-78
2022/06/09 12:41:35;;;;;;;;;;;;;;;21.23;100.00;99242.69;5115913;28;19925;-76
2022/06/09 12:44:07;;;;;;;;;;;;;;;21.15;100.00;99238.19;5115532;28;20019;-78
2022/06/09 12:46:40;;;;;;;;;;;;;;;20.78;100.00;99236.34;5115615;28;20429;-77
2022/06/09 12:49:15;;;;;;;;;;;;;;;21.45;100.00;99233.69;5096760;28;19920;-77
2022/06/09 12:51:44;;;;;;;;;;;;;;;21.67;100.00;99227.31;5115451;28;19919;-77
2022/06/09 12:54:21;;;;;;;;;;;;;;;22.06;100.00;99236.97;5115323;28;20018;-77
2022/06/09 12:56:56;;;;;;;;;;;;;;;21.89;100.00;99246.38;5097028;28;19927;-77
2022/06/09 12:59:26;;;;;;;;;;;;;;;22.32;100.00;99251.94;5115160;28;19920;-78
2022/06/09 13:01:57;;;;;;;;;;;;;;;22.70;100.00;99253.41;5097098;28;19966;-77
2022/06/09 13:04:26;;;;;;;;;;;;;;;22.76;100.00;99251.75;5097230;28;19930;-77
2022/06/09 13:06:56;;;;;;;;;;;;;;;22.43;100.00;99255.00;5115131;28;20006;-77
2022/06/09 13:09:27;;;;;;;;;;;;;;;22.44;100.00;99256.69;5114736;28;20392;-77
2022/06/09 13:14:42;;;;;;;;;;;;;;;23.19;100.00;99241.72;5115046;28;19919;-78
2022/06/09 13:17:14;;;;;;;;;;;;;;;23.60;100.00;99228.19;5114786;28;19928;-78
2022/06/09 13:19:43;;;;;;;;;;;;;;;23.66;100.00;99223.84;5115189;28;20023;-78
2022/06/09 13:22:16;;;;;;;;;;;;;;;23.76;96.89;99224.31;5096437;28;20360;-78
2022/06/09 13:24:45;;;;;;;;;;;;;;;23.76;100.00;99212.59;5115035;28;19919;-77
2022/06/09 13:27:15;;;;;;;;;;;;;;;23.57;96.25;99214.97;5096339;28;19969;-77